createdAt,value
2022-09-15T02:37:28.967Z,73.52
2022-09-15T02:40:00.203Z,73.55
2022-09-15T02:42:28.970Z,73.40
2022-09-15T02:44:55.975Z,73.29
2022-09-15T02:47:25.656Z,73.57
2022-09-15T02:49:52.214Z,73.62
2022-09-15T02:52:20.347Z,73.61
2022-09-15T02:54:50.608Z,73.35
2022-09-15T02:57:17.847Z,73.43
2022-09-15T02:59:45.211Z,73.03
2022-09-15T03:02:12.449Z,72.69
2022-09-15T03:04:41.863Z,72.51
2022-09-15T03:07:09.516Z,72.83
2022-09-15T03:09:36.706Z,73.09
2022-09-15T03:12:09.377Z,73.28
2022-09-15T03:14:35.915Z,73.29
2022-09-15T03:17:02.717Z,73.01
2022-09-15T03:19:29.280Z,72.63
2022-09-15T03:21:55.927Z,72.87
2022-09-15T03:24:22.692Z,72.73
2022-09-15T03:26:51.138Z,72.28
2022-09-15T03:29:20.906Z,72.85
2022-09-15T03:31:48.541Z,72.32
2022-09-15T03:34:20.076Z,72.31
2022-09-15T03:36:46.657Z,72.21
2022-09-15T03:39:13.620Z,71.83
2022-09-15T03:41:40.563Z,71.97
2022-09-15T03:44:07.750Z,71.66
2022-09-15T03:46:38.603Z,71.67
2022-09-15T03:49:05.565Z,72.00
2022-09-15T03:51:36.060Z,71.32
2022-09-15T03:54:06.324Z,71.25
2022-09-15T03:56:34.744Z,71.51
2022-09-15T03:59:02.509Z,71.17
2022-09-15T04:01:31.038Z,71.49
2022-09-15T04:03:59.235Z,71.06
2022-09-15T04:06:26.579Z,71.82
2022-09-15T04:08:54.660Z,71.30
2022-09-15T04:11:25.182Z,71.25
2022-09-15T04:13:53.581Z,71.47
2022-09-15T04:16:22.752Z,70.98
2022-09-15T04:18:49.743Z,70.87
2022-09-15T04:21:21.779Z,70.25
2022-09-15T04:23:48.734Z,70.47
2022-09-15T04:26:21.459Z,70.36
2022-09-15T04:28:48.351Z,70.44
2022-09-15T04:31:16.800Z,70.51
2022-09-15T04:33:45.096Z,70.19
2022-09-15T04:36:13.614Z,70.48
2022-09-15T04:38:42.073Z,70.45
2022-09-15T04:41:18.910Z,70.36
2022-09-15T04:43:45.853Z,70.11
2022-09-15T04:46:12.993Z,70.53
2022-09-15T04:48:40.078Z,70.32
2022-09-15T04:51:08.890Z,70.13
2022-09-15T04:53:36.873Z,70.42
2022-09-15T04:56:07.073Z,70.24
2022-09-15T04:58:37.311Z,70.24
2022-09-15T05:01:08.227Z,70.12
2022-09-15T05:03:47.910Z,70.41
2022-09-15T05:06:17.610Z,70.08
2022-09-15T05:08:48.041Z,69.84
2022-09-15T05:11:16.700Z,69.83
2022-09-15T05:13:43.751Z,69.61
2022-09-15T05:16:12.560Z,70.06
2022-09-15T05:18:40.254Z,69.71
2022-09-15T05:21:08.805Z,70.00
2022-09-15T05:23:36.465Z,69.74
2022-09-15T05:26:05.555Z,70.16
2022-09-15T05:28:35.955Z,69.81
2022-09-15T05:31:07.115Z,69.26
2022-09-15T05:33:34.497Z,69.03
2022-09-15T05:36:01.760Z,68.99
2022-09-15T05:38:30.729Z,69.13
2022-09-15T05:41:02.436Z,68.42
2022-09-15T05:43:30.935Z,68.95
2022-09-15T05:46:01.527Z,68.60
2022-09-15T05:48:28.498Z,68.59
2022-09-15T05:50:58.565Z,68.72
2022-09-15T05:53:26.409Z,67.99
2022-09-15T05:55:54.907Z,67.32
2022-09-15T05:58:21.701Z,67.46
2022-09-15T06:00:48.248Z,67.50
2022-09-15T06:03:17.086Z,66.98
2022-09-15T06:05:43.646Z,66.79
2022-09-15T06:08:11.038Z,66.86
2022-09-15T06:10:41.006Z,66.67
2022-09-15T06:13:08.034Z,66.76
2022-09-15T06:15:34.617Z,65.36
2022-09-15T06:18:04.443Z,65.37
2022-09-15T06:20:32.934Z,64.98
2022-09-15T06:22:59.546Z,65.18
2022-09-15T06:25:26.109Z,65.02
2022-09-15T06:27:52.747Z,65.13
2022-09-15T06:30:19.462Z,64.40
2022-09-15T06:32:48.557Z,64.49
2022-09-15T06:35:15.424Z,64.05
2022-09-15T06:37:43.335Z,63.99
2022-09-15T06:40:11.153Z,64.54
2022-09-15T06:42:38.079Z,64.38
2022-09-15T06:45:05.207Z,63.65
2022-09-15T06:47:31.767Z,63.93
2022-09-15T06:49:58.460Z,64.16
2022-09-15T06:52:25.021Z,64.47
2022-09-15T06:54:54.040Z,64.29
2022-09-15T06:57:20.878Z,63.96
2022-09-15T06:59:47.525Z,63.75
2022-09-15T07:02:14.141Z,63.08
2022-09-15T07:04:40.858Z,62.53
2022-09-15T07:07:07.585Z,62.25
2022-09-15T07:09:34.214Z,62.60
2022-09-15T07:12:02.633Z,61.80
2022-09-15T07:14:29.561Z,62.15
2022-09-15T07:16:56.453Z,62.88
2022-09-15T07:19:23.068Z,63.06
2022-09-15T07:21:49.568Z,63.04
2022-09-15T07:24:16.652Z,63.19
2022-09-15T07:26:43.484Z,62.61
2022-09-15T07:29:11.363Z,61.29
2022-09-15T07:31:39.011Z,61.34
2022-09-15T07:34:06.598Z,61.17
2022-09-15T07:36:33.332Z,60.25
2022-09-15T07:39:00.102Z,60.46
2022-09-15T07:41:30.230Z,60.23
2022-09-15T07:43:59.042Z,59.57
2022-09-15T07:46:30.474Z,58.89
2022-09-15T07:48:57.226Z,59.46
2022-09-15T07:51:24.834Z,59.34
2022-09-15T07:53:52.439Z,59.56
2022-09-15T07:56:19.520Z,58.23
2022-09-15T07:58:48.341Z,57.44
2022-09-15T08:01:16.963Z,58.47
2022-09-15T08:03:46.644Z,57.59
2022-09-15T08:06:14.829Z,56.83
2022-09-15T08:08:42.396Z,56.63
2022-09-15T08:11:13.070Z,56.99
2022-09-15T08:13:42.060Z,57.16
2022-09-15T08:16:19.509Z,57.48
2022-09-15T08:18:48.226Z,56.76
2022-09-15T08:21:18.044Z,56.70
2022-09-15T08:23:44.738Z,56.74
2022-09-15T08:26:14.356Z,56.50
2022-09-15T08:28:42.250Z,57.04
2022-09-15T08:31:11.134Z,55.69
2022-09-15T08:33:43.197Z,55.99
2022-09-15T08:36:14.262Z,55.02
2022-09-15T08:38:42.631Z,55.06
2022-09-15T08:41:14.704Z,53.96
2022-09-15T08:43:46.403Z,54.94
2022-09-15T08:46:17.759Z,54.25
2022-09-15T08:48:49.963Z,53.30
2022-09-15T08:51:23.446Z,51.12
2022-09-15T08:53:55.920Z,50.98
2022-09-15T08:56:24.580Z,50.73
2022-09-15T08:58:51.228Z,50.16
2022-09-15T09:01:31.941Z,49.60
2022-09-15T09:04:22.378Z,48.63
2022-09-15T09:07:03.558Z,48.45
2022-09-15T09:09:39.439Z,48.28
2022-09-15T09:12:31.641Z,47.28
2022-09-15T09:15:11.575Z,46.79
2022-09-15T09:17:59.218Z,45.83
2022-09-15T09:20:42.312Z,44.87
2022-09-15T09:23:14.986Z,43.35
2022-09-15T09:25:42.443Z,43.21
2022-09-15T09:28:24.050Z,43.48
2022-09-15T09:30:50.970Z,42.31
2022-09-15T09:33:29.928Z,42.20
2022-09-15T09:36:00.464Z,41.45
2022-09-15T09:38:31.458Z,42.40
2022-09-15T09:41:02.129Z,40.51
2022-09-15T09:43:30.716Z,42.64
2022-09-15T09:45:57.561Z,42.53
2022-09-15T09:48:27.074Z,42.65
2022-09-15T09:50:55.505Z,40.84
2022-09-15T09:53:29.494Z,40.95
2022-09-15T09:56:15.909Z,40.62
2022-09-15T09:58:43.157Z,40.13
2022-09-15T10:01:11.693Z,38.93
2022-09-15T10:03:38.548Z,39.13
2022-09-15T10:06:07.427Z,39.63
2022-09-15T10:08:37.172Z,39.93
2022-09-15T10:11:05.860Z,40.23
2022-09-15T10:13:36.094Z,40.83
2022-09-15T10:16:06.536Z,40.80
2022-09-15T10:18:36.132Z,42.01
2022-09-15T10:21:05.706Z,41.43
2022-09-15T10:23:35.927Z,41.93
2022-09-15T10:26:22.513Z,42.53
2022-09-15T10:29:12.658Z,41.10
2022-09-15T10:31:40.508Z,40.86
2022-09-15T10:34:24.950Z,41.42
2022-09-15T10:36:53.902Z,41.01
2022-09-15T10:39:27.220Z,41.47
2022-09-15T10:42:03.846Z,41.86
2022-09-15T10:44:36.878Z,41.42
2022-09-15T10:47:14.352Z,42.05
2022-09-15T10:49:54.179Z,41.61
2022-09-15T10:52:31.798Z,41.72
2022-09-15T10:55:15.838Z,41.00
2022-09-15T10:57:56.996Z,39.39
2022-09-15T11:00:28.425Z,38.64
2022-09-15T11:03:12.861Z,36.87
2022-09-15T11:05:53.048Z,36.94
2022-09-15T11:08:42.357Z,37.67
2022-09-15T11:11:18.848Z,37.93
2022-09-15T11:14:00.026Z,37.29
2022-09-15T11:16:34.716Z,37.96
2022-09-15T11:19:13.032Z,38.41
2022-09-15T11:21:46.071Z,39.89
2022-09-15T11:24:34.995Z,40.84
2022-09-15T11:27:08.077Z,42.20
2022-09-15T11:29:52.524Z,43.04
2022-09-15T11:32:24.521Z,44.25
2022-09-15T11:34:55.797Z,45.01
2022-09-15T11:37:26.436Z,44.59
2022-09-15T11:39:58.813Z,45.09
2022-09-15T11:42:35.563Z,45.73
2022-09-15T11:45:03.154Z,46.09
2022-09-15T11:47:36.308Z,46.38
2022-09-15T11:50:14.348Z,47.09
2022-09-15T11:52:49.701Z,47.89
2022-09-15T11:55:25.166Z,47.90
2022-09-15T11:58:00.763Z,48.47
2022-09-15T12:00:27.600Z,48.19
2022-09-15T12:03:06.211Z,47.85
2022-09-15T12:05:39.308Z,48.09
2022-09-15T12:08:15.916Z,48.50
2022-09-15T12:10:46.553Z,48.29
2022-09-15T12:13:18.073Z,48.00
2022-09-15T12:15:46.313Z,47.38
2022-09-15T12:18:37.741Z,46.56
2022-09-15T12:21:15.331Z,46.38
2022-09-15T12:23:47.804Z,47.27
2022-09-15T12:26:17.897Z,47.56
2022-09-15T12:28:57.642Z,48.34
2022-09-15T12:31:30.485Z,49.42
2022-09-15T12:34:00.116Z,49.16
2022-09-15T12:36:48.120Z,49.80
2022-09-15T12:39:28.176Z,50.21
2022-09-15T12:41:57.488Z,50.26
2022-09-15T12:44:32.216Z,54.25
2022-09-15T12:47:00.784Z,55.93
2022-09-15T12:49:32.713Z,56.14
2022-09-15T12:52:03.269Z,56.56
2022-09-15T12:54:32.303Z,56.95
2022-09-15T12:57:00.282Z,55.78
2022-09-15T12:59:28.707Z,55.13
2022-09-15T13:01:56.322Z,55.90
2022-09-15T13:04:56.601Z,56.22
2022-09-15T13:07:35.678Z,55.21
2022-09-15T13:10:28.533Z,56.22
2022-09-15T13:13:10.047Z,56.73
2022-09-15T13:15:47.228Z,55.98
2022-09-15T13:18:18.450Z,55.90
2022-09-15T13:20:53.349Z,55.40
2022-09-15T13:23:22.842Z,55.75
2022-09-15T13:25:52.490Z,54.51
2022-09-15T13:28:20.444Z,53.98
2022-09-15T13:31:04.533Z,52.62
2022-09-15T13:39:58.494Z,48.81
2022-09-15T13:42:39.852Z,48.34
2022-09-15T13:45:35.890Z,48.38
2022-09-15T13:48:21.945Z,48.43
2022-09-15T13:50:56.313Z,48.87
2022-09-15T13:53:50.170Z,49.25
2022-09-15T13:56:24.328Z,48.53
2022-09-15T13:59:03.415Z,48.93
2022-09-15T14:01:39.575Z,47.78
2022-09-15T14:04:15.781Z,49.22
2022-09-15T14:06:44.769Z,50.19
2022-09-15T14:09:15.184Z,50.02
2022-09-15T14:11:46.600Z,50.29
2022-09-15T14:14:39.832Z,49.23
2022-09-15T14:17:21.816Z,49.98
2022-09-15T14:19:51.372Z,50.53
2022-09-15T14:22:27.429Z,49.96
2022-09-15T14:24:55.678Z,49.51
2022-09-15T14:27:26.417Z,49.47
2022-09-15T14:29:54.717Z,49.03
2022-09-15T14:32:22.228Z,48.26
2022-09-15T14:34:55.998Z,48.97
2022-09-15T14:37:26.785Z,48.38
2022-09-15T14:39:56.706Z,47.59
2022-09-15T14:42:25.710Z,47.24
2022-09-15T14:47:44.304Z,47.09
2022-09-15T14:50:16.293Z,46.90
2022-09-15T14:52:46.300Z,47.44
2022-09-15T14:55:16.819Z,46.59
2022-09-15T14:57:52.893Z,46.96
2022-09-15T15:00:25.593Z,46.79
2022-09-15T15:03:06.187Z,47.25
2022-09-15T15:05:43.978Z,47.64
2022-09-15T15:08:19.913Z,46.35
2022-09-15T15:10:46.651Z,45.49
2022-09-15T15:13:16.308Z,45.30
2022-09-15T15:15:44.006Z,45.74
2022-09-15T15:18:49.137Z,46.50
2022-09-15T15:21:41.939Z,46.63
2022-09-15T15:24:16.942Z,46.34
2022-09-15T15:26:45.290Z,46.26
2022-09-15T15:29:40.489Z,45.95
2022-09-15T15:32:12.198Z,46.16
2022-09-15T15:34:39.350Z,46.22
2022-09-15T15:37:22.341Z,46.03
2022-09-15T15:39:52.516Z,46.14
2022-09-15T15:42:20.254Z,46.52
2022-09-15T15:45:01.565Z,45.65
2022-09-15T15:47:30.884Z,46.00
2022-09-15T15:50:16.564Z,45.81
2022-09-15T15:52:44.548Z,45.79
2022-09-15T15:55:14.497Z,45.74
2022-09-15T15:57:41.255Z,45.95
2022-09-15T16:00:21.087Z,46.08
2022-09-15T16:02:49.315Z,46.18
2022-09-15T16:05:15.928Z,45.49
2022-09-15T16:07:46.993Z,45.21
2022-09-15T16:10:16.310Z,45.70
2022-09-15T16:12:42.913Z,45.42
2022-09-15T16:15:12.317Z,46.85
2022-09-15T16:17:43.065Z,47.58
2022-09-15T16:20:14.639Z,47.75
2022-09-15T16:22:41.622Z,47.70
2022-09-15T16:25:16.526Z,48.22
2022-09-15T16:27:43.736Z,48.33
2022-09-15T16:30:11.018Z,49.02
2022-09-15T16:32:38.139Z,50.04
2022-09-15T16:35:16.180Z,51.21
2022-09-15T16:37:42.801Z,52.05
2022-09-15T16:40:12.101Z,51.94
2022-09-15T16:43:02.990Z,52.46
2022-09-15T16:45:36.472Z,51.85
2022-09-15T16:48:08.166Z,52.15
2022-09-15T16:50:42.650Z,51.94
2022-09-15T16:53:13.722Z,52.28
2022-09-15T16:55:57.185Z,51.99
2022-09-15T16:58:33.512Z,52.09
2022-09-15T17:01:06.126Z,52.75
2022-09-15T17:03:37.546Z,52.90
2022-09-15T17:06:05.634Z,53.30
2022-09-15T17:08:33.360Z,52.91
2022-09-15T17:13:55.332Z,51.38
2022-09-15T17:16:22.119Z,50.98
2022-09-15T17:18:48.952Z,50.93
2022-09-15T17:21:17.561Z,50.60
2022-09-15T17:23:45.790Z,49.25
2022-09-15T17:26:17.411Z,48.87
2022-09-15T17:28:44.345Z,49.29
2022-09-15T17:31:15.822Z,48.86
2022-09-15T17:33:43.768Z,48.00
2022-09-15T17:36:10.704Z,47.76
2022-09-15T17:38:38.093Z,47.10
2022-09-15T17:41:05.312Z,47.18
2022-09-15T17:43:32.101Z,47.82
2022-09-15T17:46:01.443Z,47.37
2022-09-15T17:48:43.946Z,47.36
2022-09-15T17:51:16.647Z,47.40
2022-09-15T17:53:47.165Z,47.62
2022-09-15T17:56:16.598Z,47.73
2022-09-15T17:58:45.360Z,47.98
2022-09-15T18:01:19.069Z,48.08
2022-09-15T18:03:47.369Z,48.42
2022-09-15T18:06:16.140Z,48.24
2022-09-15T18:08:43.080Z,48.22
2022-09-15T18:11:14.986Z,48.59
2022-09-15T18:13:41.888Z,48.71
2022-09-15T18:16:16.719Z,49.41
2022-09-15T18:18:47.891Z,49.23
2022-09-15T18:21:23.555Z,49.33
2022-09-15T18:23:52.139Z,49.60
2022-09-15T18:26:26.265Z,49.06
2022-09-15T18:28:53.734Z,49.56
2022-09-15T18:31:23.467Z,50.11
2022-09-15T18:33:52.314Z,50.88
2022-09-15T18:36:22.350Z,51.04
2022-09-15T18:38:52.448Z,50.62
2022-09-15T18:41:19.356Z,50.76
2022-09-15T18:43:46.088Z,50.81
2022-09-15T18:46:13.738Z,50.68
2022-09-15T18:48:40.625Z,50.71
2022-09-15T18:51:13.826Z,50.86
2022-09-15T18:53:49.747Z,50.65
2022-09-15T18:56:19.162Z,50.52
2022-09-15T18:58:45.829Z,50.84
2022-09-15T19:01:12.565Z,50.68
2022-09-15T19:03:44.096Z,50.20
2022-09-15T19:06:13.151Z,50.64
2022-09-15T19:08:39.800Z,50.98
2022-09-15T19:11:07.313Z,50.24
2022-09-15T19:13:33.954Z,51.22
2022-09-15T19:16:02.888Z,50.96
2022-09-15T19:18:29.713Z,50.98
2022-09-15T19:21:04.802Z,51.55
2022-09-15T19:23:33.289Z,51.37
2022-09-15T19:26:02.311Z,51.55
2022-09-15T19:28:31.924Z,51.87
2022-09-15T19:30:58.989Z,52.04
2022-09-15T19:33:25.791Z,52.11
2022-09-15T19:36:04.942Z,52.83
2022-09-15T19:38:44.366Z,52.67
2022-09-15T19:41:13.722Z,52.77
2022-09-15T19:43:42.419Z,52.77
2022-09-15T19:46:13.755Z,53.06
2022-09-15T19:48:42.792Z,53.75
2022-09-15T19:51:16.695Z,53.45
2022-09-15T19:53:45.926Z,53.86
2022-09-15T19:56:39.484Z,54.05
2022-09-15T19:59:12.943Z,54.20
2022-09-15T20:01:40.334Z,54.89
2022-09-15T20:04:10.224Z,54.92
2022-09-15T20:06:37.345Z,55.54
2022-09-15T20:09:09.769Z,55.95
2022-09-15T20:11:38.154Z,56.08
2022-09-15T20:14:09.057Z,56.73
2022-09-15T20:16:39.111Z,56.58
2022-09-15T20:19:11.453Z,56.24
2022-09-15T20:21:51.402Z,57.10
2022-09-15T20:24:25.420Z,57.31
2022-09-15T20:27:12.990Z,57.34
2022-09-15T20:29:48.516Z,57.48
2022-09-15T20:32:30.289Z,57.88
2022-09-15T20:35:06.258Z,57.77
2022-09-15T20:37:37.665Z,58.20
2022-09-15T20:40:07.140Z,57.33
2022-09-15T20:42:41.114Z,57.46
2022-09-15T20:45:10.367Z,56.93
2022-09-15T20:47:50.239Z,56.82
2022-09-15T20:50:18.370Z,56.48
2022-09-15T20:52:45.369Z,56.76
2022-09-15T20:55:14.894Z,56.95
2022-09-15T20:57:53.301Z,56.57
2022-09-15T21:00:57.222Z,56.88
2022-09-15T21:03:23.953Z,57.08
2022-09-15T21:05:59.144Z,57.32
2022-09-15T21:08:28.509Z,57.57
2022-09-15T21:10:56.615Z,57.80
2022-09-15T21:13:23.629Z,57.86
2022-09-15T21:18:43.239Z,57.51
2022-09-15T21:21:26.284Z,57.20
2022-09-15T21:24:01.948Z,57.19
2022-09-15T21:26:34.923Z,57.09
2022-09-15T21:29:11.511Z,57.31
2022-09-15T21:31:48.333Z,57.76
2022-09-15T21:34:19.168Z,57.58
2022-09-15T21:37:00.269Z,57.89
2022-09-15T21:39:38.838Z,57.46
2022-09-15T21:42:14.691Z,58.05
2022-09-15T21:44:48.103Z,57.24
2022-09-15T21:47:16.916Z,57.58
2022-09-15T21:49:43.813Z,57.27
2022-09-15T21:52:12.448Z,57.35
2022-09-15T21:54:39.437Z,57.54
2022-09-15T21:57:07.967Z,57.54
2022-09-15T21:59:39.300Z,57.48
2022-09-15T22:02:06.376Z,57.64
2022-09-15T22:04:36.606Z,57.95
2022-09-15T22:07:09.510Z,57.49
2022-09-15T22:09:36.424Z,57.34
2022-09-15T22:12:03.468Z,57.49
2022-09-15T22:14:32.952Z,57.85
2022-09-15T22:17:01.566Z,57.77
2022-09-15T22:19:37.118Z,58.08
2022-09-15T22:22:04.102Z,57.97
2022-09-15T22:24:37.853Z,58.35
2022-09-15T22:27:20.492Z,58.19
2022-09-15T22:29:59.351Z,58.70
2022-09-15T22:32:29.473Z,58.78
2022-09-15T22:35:00.408Z,59.14
2022-09-15T22:37:42.525Z,59.80
2022-09-15T22:40:26.058Z,60.14
2022-09-15T22:42:57.682Z,60.91
2022-09-15T22:45:41.899Z,60.36
2022-09-15T22:48:14.099Z,60.10
2022-09-15T22:50:49.147Z,60.03
2022-09-15T22:53:17.859Z,59.79
2022-09-15T22:55:46.305Z,59.71
2022-09-15T22:58:17.443Z,59.49
2022-09-15T23:00:52.112Z,59.78
2022-09-15T23:03:21.734Z,59.61
2022-09-15T23:05:58.453Z,60.12
2022-09-15T23:08:29.926Z,59.81
2022-09-15T23:11:07.919Z,59.50
2022-09-15T23:13:35.153Z,59.75
2022-09-15T23:16:05.585Z,60.23
2022-09-15T23:18:49.243Z,59.54
2022-09-15T23:21:21.707Z,60.00
2022-09-15T23:23:51.392Z,59.91
2022-09-15T23:26:40.200Z,59.81
2022-09-15T23:29:07.071Z,60.14
2022-09-15T23:31:35.810Z,60.17
2022-09-15T23:34:05.970Z,60.14
2022-09-15T23:36:34.665Z,60.07
2022-09-15T23:39:07.261Z,59.75
2022-09-15T23:41:48.735Z,60.00
2022-09-15T23:44:26.616Z,59.54
2022-09-15T23:46:58.672Z,59.88
2022-09-15T23:49:47.757Z,59.93
2022-09-15T23:52:14.900Z,59.37
2022-09-15T23:54:46.959Z,59.97
2022-09-15T23:57:15.325Z,60.09
2022-09-15T23:59:44.928Z,59.78
